sensor_id;sensor_type;location;lat;lon;timestamp;pressure;altitude;pressure_sealevel;temperature;humidity
11692;BME280;33659;42.672;23.354;2023-02-12T00:02:19;95271.66;;;2.41;41.34
11692;BME280;33659;42.672;23.354;2023-02-12T00:04:46;95269.81;;;2.27;41.75
11692;BME280;33659;42.672;23.354;2023-02-12T00:07:13;95252.81;;;2.26;41.88
11692;BME280;33659;42.672;23.354;2023-02-12T00:09:40;95223.66;;;2.20;41.82
11692;BME280;33659;42.672;23.354;2023-02-12T00:12:06;95268.25;;;2.26;41.82
11692;BME280;33659;42.672;23.354;2023-02-12T00:14:33;95264.38;;;2.23;41.69
11692;BME280;33659;42.672;23.354;2023-02-12T00:17:03;95277.50;;;2.22;42.33
11692;BME280;33659;42.672;23.354;2023-02-12T00:19:30;95286.75;;;2.17;42.10
11692;BME280;33659;42.672;23.354;2023-02-12T00:21:57;95275.72;;;2.22;41.76
11692;BME280;33659;42.672;23.354;2023-02-12T00:24:23;95279.56;;;2.20;41.87
11692;BME280;33659;42.672;23.354;2023-02-12T00:26:51;95283.66;;;2.15;42.32
11692;BME280;33659;42.672;23.354;2023-02-12T00:29:18;95266.13;;;2.07;41.86
11692;BME280;33659;42.672;23.354;2023-02-12T00:31:44;95267.69;;;2.13;41.75
11692;BME280;33659;42.672;23.354;2023-02-12T00:34:12;95269.75;;;2.16;42.03
11692;BME280;33659;42.672;23.354;2023-02-12T00:36:39;95265.91;;;2.24;41.35
11692;BME280;33659;42.672;23.354;2023-02-12T00:39:06;95251.00;;;2.31;41.11
11692;BME280;33659;42.672;23.354;2023-02-12T00:41:32;95243.81;;;2.38;41.33
11692;BME280;33659;42.672;23.354;2023-02-12T00:43:59;95235.56;;;2.41;41.62
11692;BME280;33659;42.672;23.354;2023-02-12T00:46:25;95237.13;;;2.42;41.12
11692;BME280;33659;42.672;23.354;2023-02-12T00:48:52;95245.66;;;2.53;41.30
11692;BME280;33659;42.672;23.354;2023-02-12T00:51:20;95239.97;;;2.51;41.28
11692;BME280;33659;42.672;23.354;2023-02-12T00:53:47;95238.66;;;2.43;41.46
11692;BME280;33659;42.672;23.354;2023-02-12T00:56:14;95226.81;;;2.42;41.37
11692;BME280;33659;42.672;23.354;2023-02-12T00:58:40;95243.59;;;2.45;41.58
11692;BME280;33659;42.672;23.354;2023-02-12T01:01:07;95239.44;;;2.49;41.44
11692;BME280;33659;42.672;23.354;2023-02-12T01:03:34;95215.22;;;2.45;41.43
11692;BME280;33659;42.672;23.354;2023-02-12T01:06:01;95227.59;;;2.48;41.36
11692;BME280;33659;42.672;23.354;2023-02-12T01:08:29;95221.91;;;2.51;41.19
11692;BME280;33659;42.672;23.354;2023-02-12T01:10:58;95226.84;;;2.53;41.29
11692;BME280;33659;42.672;23.354;2023-02-12T01:13:26;95229.94;;;2.55;40.79
11692;BME280;33659;42.672;23.354;2023-02-12T01:16:05;95218.06;;;2.54;41.15
11692;BME280;33659;42.672;23.354;2023-02-12T01:18:33;95246.16;;;2.50;41.36
11692;BME280;33659;42.672;23.354;2023-02-12T01:20:59;95225.53;;;2.40;41.33
11692;BME280;33659;42.672;23.354;2023-02-12T01:23:26;95239.44;;;2.39;41.67
11692;BME280;33659;42.672;23.354;2023-02-12T01:25:54;95237.09;;;2.37;41.57
11692;BME280;33659;42.672;23.354;2023-02-12T01:28:23;95236.84;;;2.34;42.18
11692;BME280;33659;42.672;23.354;2023-02-12T01:30:50;95248.19;;;2.33;42.29
11692;BME280;33659;42.672;23.354;2023-02-12T01:33:16;95250.75;;;2.28;42.43
11692;BME280;33659;42.672;23.354;2023-02-12T01:35:43;95244.78;;;2.22;42.47
11692;BME280;33659;42.672;23.354;2023-02-12T01:38:10;95231.16;;;2.27;42.24
11692;BME280;33659;42.672;23.354;2023-02-12T01:40:37;95239.13;;;2.30;42.74
11692;BME280;33659;42.672;23.354;2023-02-12T01:43:10;95231.72;;;2.39;42.17
11692;BME280;33659;42.672;23.354;2023-02-12T01:45:46;95226.56;;;2.39;42.43
11692;BME280;33659;42.672;23.354;2023-02-12T01:48:15;95234.78;;;2.41;42.15
11692;BME280;33659;42.672;23.354;2023-02-12T01:50:43;95233.25;;;2.40;42.44
11692;BME280;33659;42.672;23.354;2023-02-12T01:53:12;95219.84;;;2.43;42.42
11692;BME280;33659;42.672;23.354;2023-02-12T01:55:46;95211.59;;;2.36;41.97
11692;BME280;33659;42.672;23.354;2023-02-12T01:58:15;95226.53;;;2.34;42.53
11692;BME280;33659;42.672;23.354;2023-02-12T02:00:42;95213.13;;;2.37;42.11
11692;BME280;33659;42.672;23.354;2023-02-12T02:03:10;95219.34;;;2.41;42.19
11692;BME280;33659;42.672;23.354;2023-02-12T02:05:42;95219.34;;;2.41;42.69
11692;BME280;33659;42.672;23.354;2023-02-12T02:08:09;95215.47;;;2.43;42.68
11692;BME280;33659;42.672;23.354;2023-02-12T02:10:36;95218.81;;;2.49;42.56
11692;BME280;33659;42.672;23.354;2023-02-12T02:13:03;95225.31;;;2.62;42.86
11692;BME280;33659;42.672;23.354;2023-02-12T02:15:54;95221.69;;;2.63;42.64
11692;BME280;33659;42.672;23.354;2023-02-12T02:18:27;95227.13;;;2.71;43.04
11692;BME280;33659;42.672;23.354;2023-02-12T02:21:18;95220.97;;;2.78;43.11
11692;BME280;33659;42.672;23.354;2023-02-12T02:24:17;95217.59;;;2.77;43.20
11692;BME280;33659;42.672;23.354;2023-02-12T02:27:01;95218.38;;;2.78;42.76
11692;BME280;33659;42.672;23.354;2023-02-12T02:32:28;95211.41;;;2.83;42.83
11692;BME280;33659;42.672;23.354;2023-02-12T02:34:59;95205.47;;;2.78;43.16
11692;BME280;33659;42.672;23.354;2023-02-12T02:37:31;95205.19;;;2.69;43.17
11692;BME280;33659;42.672;23.354;2023-02-12T02:40:08;95202.88;;;2.67;43.01
11692;BME280;33659;42.672;23.354;2023-02-12T02:42:40;95195.16;;;2.67;43.04
11692;BME280;33659;42.672;23.354;2023-02-12T02:45:11;95190.75;;;2.53;43.30
11692;BME280;33659;42.672;23.354;2023-02-12T02:47:44;95204.13;;;2.50;43.29
11692;BME280;33659;42.672;23.354;2023-02-12T02:50:14;95206.97;;;2.48;44.08
11692;BME280;33659;42.672;23.354;2023-02-12T02:52:45;95213.94;;;2.48;43.64
11692;BME280;33659;42.672;23.354;2023-02-12T02:55:17;95211.09;;;2.49;44.00
11692;BME280;33659;42.672;23.354;2023-02-12T02:57:49;95211.88;;;2.55;44.46
11692;BME280;33659;42.672;23.354;2023-02-12T03:00:21;95210.09;;;2.60;44.32
11692;BME280;33659;42.672;23.354;2023-02-12T03:02:55;95225.56;;;2.60;44.38
11692;BME280;33659;42.672;23.354;2023-02-12T03:05:28;95218.63;;;2.66;44.43
11692;BME280;33659;42.672;23.354;2023-02-12T03:08:00;95214.75;;;2.68;44.41
11692;BME280;33659;42.672;23.354;2023-02-12T03:10:31;95200.81;;;2.64;44.47
11692;BME280;33659;42.672;23.354;2023-02-12T03:13:01;95210.88;;;2.66;44.89
11692;BME280;33659;42.672;23.354;2023-02-12T03:15:32;95208.28;;;2.56;44.40
11692;BME280;33659;42.672;23.354;2023-02-12T03:18:04;95206.44;;;2.51;45.24
11692;BME280;33659;42.672;23.354;2023-02-12T03:20:36;95199.75;;;2.40;45.22
11692;BME280;33659;42.672;23.354;2023-02-12T03:23:09;95192.50;;;2.37;45.46
11692;BME280;33659;42.672;23.354;2023-02-12T03:25:42;95180.63;;;2.15;45.71
11692;BME280;33659;42.672;23.354;2023-02-12T03:28:14;95196.56;;;2.12;45.97
11692;BME280;33659;42.672;23.354;2023-02-12T03:30:44;95199.09;;;1.97;46.20
11692;BME280;33659;42.672;23.354;2023-02-12T03:33:24;95195.47;;;1.93;46.54
11692;BME280;33659;42.672;23.354;2023-02-12T03:35:58;95200.09;;;1.91;46.43
11692;BME280;33659;42.672;23.354;2023-02-12T03:38:34;95197.75;;;1.84;46.91
11692;BME280;33659;42.672;23.354;2023-02-12T03:41:05;95194.91;;;1.81;47.03
11692;BME280;33659;42.672;23.354;2023-02-12T03:43:41;95209.09;;;1.83;47.53
11692;BME280;33659;42.672;23.354;2023-02-12T03:46:18;95208.78;;;1.80;47.33
11692;BME280;33659;42.672;23.354;2023-02-12T03:48:55;95201.84;;;1.75;47.54
11692;BME280;33659;42.672;23.354;2023-02-12T03:51:28;95198.25;;;1.76;47.20
11692;BME280;33659;42.672;23.354;2023-02-12T03:53:59;95203.91;;;1.78;47.61
11692;BME280;33659;42.672;23.354;2023-02-12T03:56:33;95209.81;;;1.79;47.72
11692;BME280;33659;42.672;23.354;2023-02-12T03:59:02;95205.44;;;1.79;47.74
11692;BME280;33659;42.672;23.354;2023-02-12T04:01:30;95194.88;;;1.71;47.59
11692;BME280;33659;42.672;23.354;2023-02-12T04:03:59;95186.84;;;1.67;47.83
11692;BME280;33659;42.672;23.354;2023-02-12T04:06:28;95198.41;;;1.59;47.63
11692;BME280;33659;42.672;23.354;2023-02-12T04:08:58;95201.53;;;1.61;47.88
11692;BME280;33659;42.672;23.354;2023-02-12T04:11:31;95205.66;;;1.68;47.86
11692;BME280;33659;42.672;23.354;2023-02-12T04:14:26;95202.63;;;1.76;47.63
11692;BME280;33659;42.672;23.354;2023-02-12T04:16:59;95210.59;;;1.74;47.52
11692;BME280;33659;42.672;23.354;2023-02-12T04:19:35;95212.38;;;1.74;47.69
11692;BME280;33659;42.672;23.354;2023-02-12T04:22:21;95213.16;;;1.79;47.67
11692;BME280;33659;42.672;23.354;2023-02-12T04:25:00;95218.59;;;1.83;47.85
11692;BME280;33659;42.672;23.354;2023-02-12T04:27:35;95221.44;;;1.86;47.28
11692;BME280;33659;42.672;23.354;2023-02-12T04:30:14;95223.50;;;1.84;47.61
11692;BME280;33659;42.672;23.354;2023-02-12T04:32:47;95225.59;;;1.87;47.53
11692;BME280;33659;42.672;23.354;2023-02-12T04:35:20;95230.50;;;1.89;47.67
11692;BME280;33659;42.672;23.354;2023-02-12T04:37:51;95223.00;;;1.93;47.63
11692;BME280;33659;42.672;23.354;2023-02-12T04:40:19;95220.72;;;1.96;47.64
11692;BME280;33659;42.672;23.354;2023-02-12T04:42:49;95225.38;;;1.94;47.94
11692;BME280;33659;42.672;23.354;2023-02-12T04:45:19;95232.84;;;1.96;47.78
11692;BME280;33659;42.672;23.354;2023-02-12T04:47:47;95224.06;;;1.97;47.81
11692;BME280;33659;42.672;23.354;2023-02-12T04:50:14;95232.56;;;1.97;47.46
11692;BME280;33659;42.672;23.354;2023-02-12T04:52:42;95233.09;;;1.99;47.53
11692;BME280;33659;42.672;23.354;2023-02-12T04:55:08;95229.75;;;1.94;47.96
11692;BME280;33659;42.672;23.354;2023-02-12T04:57:35;95238.47;;;1.93;48.54
11692;BME280;33659;42.672;23.354;2023-02-12T05:00:03;95226.59;;;1.81;48.39
11692;BME280;33659;42.672;23.354;2023-02-12T05:02:30;95229.41;;;1.80;48.60
11692;BME280;33659;42.672;23.354;2023-02-12T05:04:58;95230.97;;;1.81;48.88
11692;BME280;33659;42.672;23.354;2023-02-12T05:07:25;95230.44;;;1.84;48.67
11692;BME280;33659;42.672;23.354;2023-02-12T05:09:53;95229.44;;;1.85;48.91
11692;BME280;33659;42.672;23.354;2023-02-12T05:12:19;95230.75;;;1.93;48.69
11692;BME280;33659;42.672;23.354;2023-02-12T05:14:46;95199.72;;;1.67;48.52
11692;BME280;33659;42.672;23.354;2023-02-12T05:17:13;95257.53;;;1.92;48.69
11692;BME280;33659;42.672;23.354;2023-02-12T05:19:39;95242.84;;;1.92;48.95
11692;BME280;33659;42.672;23.354;2023-02-12T05:22:06;95242.88;;;1.97;48.74
11692;BME280;33659;42.672;23.354;2023-02-12T05:24:33;95253.69;;;1.94;48.38
11692;BME280;33659;42.672;23.354;2023-02-12T05:27:01;95264.78;;;1.95;48.73
11692;BME280;33659;42.672;23.354;2023-02-12T05:29:27;95250.59;;;1.97;49.48
11692;BME280;33659;42.672;23.354;2023-02-12T05:31:54;95282.31;;;2.03;49.04
11692;BME280;33659;42.672;23.354;2023-02-12T05:34:20;95263.25;;;2.04;48.82
11692;BME280;33659;42.672;23.354;2023-02-12T05:36:47;95264.00;;;1.99;48.82
11692;BME280;33659;42.672;23.354;2023-02-12T05:39:14;95274.75;;;1.86;49.81
11692;BME280;33659;42.672;23.354;2023-02-12T05:41:41;95265.91;;;1.72;50.82
11692;BME280;33659;42.672;23.354;2023-02-12T05:44:09;95284.72;;;1.72;51.07
11692;BME280;33659;42.672;23.354;2023-02-12T05:46:37;95304.31;;;1.78;51.25
11692;BME280;33659;42.672;23.354;2023-02-12T05:49:04;95289.91;;;1.77;51.86
11692;BME280;33659;42.672;23.354;2023-02-12T05:51:30;95268.47;;;1.67;52.65
11692;BME280;33659;42.672;23.354;2023-02-12T05:53:58;95278.75;;;1.61;53.38
11692;BME280;33659;42.672;23.354;2023-02-12T05:56:26;95276.59;;;1.53;53.78
11692;BME280;33659;42.672;23.354;2023-02-12T05:58:55;95316.53;;;1.56;54.93
11692;BME280;33659;42.672;23.354;2023-02-12T06:01:25;95298.16;;;1.42;55.75
11692;BME280;33659;42.672;23.354;2023-02-12T06:03:52;95289.44;;;1.43;56.47
11692;BME280;33659;42.672;23.354;2023-02-12T06:06:19;95289.91;;;1.40;56.57
11692;BME280;33659;42.672;23.354;2023-02-12T06:08:47;95291.75;;;1.45;56.78
11692;BME280;33659;42.672;23.354;2023-02-12T06:11:15;95289.72;;;1.52;56.77
11692;BME280;33659;42.672;23.354;2023-02-12T06:13:43;95295.66;;;1.52;56.76
11692;BME280;33659;42.672;23.354;2023-02-12T06:16:16;95281.31;;;1.61;56.33
11692;BME280;33659;42.672;23.354;2023-02-12T06:18:44;95278.75;;;1.67;57.89
11692;BME280;33659;42.672;23.354;2023-02-12T06:21:11;95290.06;;;1.66;57.91
11692;BME280;33659;42.672;23.354;2023-02-12T06:23:38;95301.63;;;1.58;58.48
11692;BME280;33659;42.672;23.354;2023-02-12T06:26:04;95292.03;;;1.48;58.69
11692;BME280;33659;42.672;23.354;2023-02-12T06:28:31;95297.84;;;1.71;59.32
11692;BME280;33659;42.672;23.354;2023-02-12T06:30:58;95306.03;;;1.62;60.42
11692;BME280;33659;42.672;23.354;2023-02-12T06:33:24;95323.53;;;1.66;60.99
11692;BME280;33659;42.672;23.354;2023-02-12T06:35:52;95296.81;;;1.72;61.07
11692;BME280;33659;42.672;23.354;2023-02-12T06:38:19;95315.34;;;1.69;61.65
11692;BME280;33659;42.672;23.354;2023-02-12T06:40:46;95323.03;;;1.63;63.09
11692;BME280;33659;42.672;23.354;2023-02-12T06:43:12;95328.16;;;1.63;63.50
11692;BME280;33659;42.672;23.354;2023-02-12T06:45:39;95316.00;;;1.54;64.35
11692;BME280;33659;42.672;23.354;2023-02-12T06:48:06;95328.78;;;1.44;64.89
11692;BME280;33659;42.672;23.354;2023-02-12T06:50:32;95323.97;;;1.52;65.04
11692;BME280;33659;42.672;23.354;2023-02-12T06:53:00;95328.38;;;1.57;64.66
11692;BME280;33659;42.672;23.354;2023-02-12T06:55:27;95327.56;;;1.51;65.13
11692;BME280;33659;42.672;23.354;2023-02-12T06:57:54;95305.91;;;1.47;65.26
11692;BME280;33659;42.672;23.354;2023-02-12T07:00:21;95321.34;;;1.42;65.76
11692;BME280;33659;42.672;23.354;2023-02-12T07:02:51;95325.94;;;1.40;65.84
11692;BME280;33659;42.672;23.354;2023-02-12T07:05:18;95308.00;;;1.50;65.65
11692;BME280;33659;42.672;23.354;2023-02-12T07:07:45;95330.59;;;1.43;65.53
11692;BME280;33659;42.672;23.354;2023-02-12T07:10:13;95318.50;;;1.44;65.91
11692;BME280;33659;42.672;23.354;2023-02-12T07:12:40;95308.22;;;1.44;66.02
11692;BME280;33659;42.672;23.354;2023-02-12T07:15:07;95335.25;;;1.46;65.41
11692;BME280;33659;42.672;23.354;2023-02-12T07:17:34;95295.88;;;1.46;66.31
11692;BME280;33659;42.672;23.354;2023-02-12T07:20:01;95318.50;;;1.44;65.73
11692;BME280;33659;42.672;23.354;2023-02-12T07:22:28;95317.53;;;1.50;66.21
11692;BME280;33659;42.672;23.354;2023-02-12T07:24:54;95332.00;;;1.61;65.70
11692;BME280;33659;42.672;23.354;2023-02-12T07:27:22;95322.81;;;1.70;65.28
11692;BME280;33659;42.672;23.354;2023-02-12T07:29:49;95305.56;;;1.71;64.88
11692;BME280;33659;42.672;23.354;2023-02-12T07:32:16;95316.31;;;1.62;65.60
11692;BME280;33659;42.672;23.354;2023-02-12T07:34:42;95302.38;;;1.58;66.03
11692;BME280;33659;42.672;23.354;2023-02-12T07:37:09;95319.94;;;1.61;66.15
11692;BME280;33659;42.672;23.354;2023-02-12T07:39:36;95327.09;;;1.59;65.84
11692;BME280;33659;42.672;23.354;2023-02-12T07:42:02;95325.03;;;1.56;66.09
11692;BME280;33659;42.672;23.354;2023-02-12T07:44:30;95329.13;;;1.52;66.14
11692;BME280;33659;42.672;23.354;2023-02-12T07:46:58;95318.56;;;1.54;66.42
11692;BME280;33659;42.672;23.354;2023-02-12T07:49:25;95332.25;;;1.59;66.28
11692;BME280;33659;42.672;23.354;2023-02-12T07:51:51;95336.63;;;1.59;66.62
11692;BME280;33659;42.672;23.354;2023-02-12T07:54:21;95331.00;;;1.62;66.52
11692;BME280;33659;42.672;23.354;2023-02-12T07:56:47;95322.72;;;1.60;66.51
11692;BME280;33659;42.672;23.354;2023-02-12T07:59:17;95310.13;;;1.58;66.46
11692;BME280;33659;42.672;23.354;2023-02-12T08:01:47;95309.56;;;1.51;66.51
11692;BME280;33659;42.672;23.354;2023-02-12T08:04:16;95327.47;;;1.36;67.54
11692;BME280;33659;42.672;23.354;2023-02-12T08:06:45;95329.47;;;1.34;67.24
11692;BME280;33659;42.672;23.354;2023-02-12T08:09:14;95333.66;;;1.40;67.75
11692;BME280;33659;42.672;23.354;2023-02-12T08:11:42;95325.41;;;1.38;67.60
11692;BME280;33659;42.672;23.354;2023-02-12T08:14:10;95326.94;;;1.39;67.65
11692;BME280;33659;42.672;23.354;2023-02-12T08:16:38;95330.56;;;1.38;68.19
11692;BME280;33659;42.672;23.354;2023-02-12T08:19:07;95337.34;;;1.49;67.57
11692;BME280;33659;42.672;23.354;2023-02-12T08:21:34;95323.84;;;1.37;67.51
11692;BME280;33659;42.672;23.354;2023-02-12T08:24:01;95340.53;;;1.61;67.71
11692;BME280;33659;42.672;23.354;2023-02-12T08:26:29;95348.50;;;1.65;67.30
11692;BME280;33659;42.672;23.354;2023-02-12T08:28:59;95357.56;;;1.73;68.43
11692;BME280;33659;42.672;23.354;2023-02-12T08:31:28;95375.59;;;1.68;67.46
11692;BME280;33659;42.672;23.354;2023-02-12T08:33:55;95372.00;;;1.74;67.28
11692;BME280;33659;42.672;23.354;2023-02-12T08:36:25;95375.94;;;1.81;66.89
11692;BME280;33659;42.672;23.354;2023-02-12T08:38:52;95368.44;;;1.80;66.97
11692;BME280;33659;42.672;23.354;2023-02-12T08:41:21;95357.09;;;1.76;67.02
11692;BME280;33659;42.672;23.354;2023-02-12T08:43:48;95368.44;;;1.75;66.99
11692;BME280;33659;42.672;23.354;2023-02-12T08:46:17;95362.78;;;1.78;66.83
11692;BME280;33659;42.672;23.354;2023-02-12T08:48:45;95395.78;;;1.81;67.25
11692;BME280;33659;42.672;23.354;2023-02-12T08:51:13;95389.09;;;1.85;66.58
11692;BME280;33659;42.672;23.354;2023-02-12T08:53:43;95373.59;;;1.80;66.78
11692;BME280;33659;42.672;23.354;2023-02-12T08:56:13;95385.16;;;1.77;67.16
11692;BME280;33659;42.672;23.354;2023-02-12T08:58:40;95396.03;;;1.84;67.01
11692;BME280;33659;42.672;23.354;2023-02-12T09:01:09;95394.19;;;1.80;67.11
11692;BME280;33659;42.672;23.354;2023-02-12T09:03:36;95400.91;;;1.81;67.11
11692;BME280;33659;42.672;23.354;2023-02-12T09:06:04;95393.66;;;1.78;67.05
11692;BME280;33659;42.672;23.354;2023-02-12T09:08:31;95392.03;;;1.67;68.02
11692;BME280;33659;42.672;23.354;2023-02-12T09:11:03;95403.97;;;1.78;67.87
11692;BME280;33659;42.672;23.354;2023-02-12T09:13:30;95403.91;;;1.73;67.82
11692;BME280;33659;42.672;23.354;2023-02-12T09:15:59;95410.72;;;1.84;67.97
11692;BME280;33659;42.672;23.354;2023-02-12T09:18:26;95405.28;;;1.80;67.71
11692;BME280;33659;42.672;23.354;2023-02-12T09:20:53;95409.13;;;1.78;68.57
11692;BME280;33659;42.672;23.354;2023-02-12T09:23:20;95417.16;;;1.86;68.24
11692;BME280;33659;42.672;23.354;2023-02-12T09:25:47;95418.75;;;1.93;68.08
11692;BME280;33659;42.672;23.354;2023-02-12T09:28:15;95386.09;;;1.98;67.92
11692;BME280;33659;42.672;23.354;2023-02-12T09:30:41;95420.53;;;1.87;67.76
11692;BME280;33659;42.672;23.354;2023-02-12T09:33:09;95410.03;;;1.94;68.03
11692;BME280;33659;42.672;23.354;2023-02-12T09:35:37;95412.97;;;2.07;67.79
11692;BME280;33659;42.672;23.354;2023-02-12T09:38:04;95414.25;;;2.10;67.60
11692;BME280;33659;42.672;23.354;2023-02-12T09:40:35;95423.81;;;2.14;67.41
11692;BME280;33659;42.672;23.354;2023-02-12T09:43:13;95426.97;;;2.22;67.12
11692;BME280;33659;42.672;23.354;2023-02-12T09:45:53;95427.72;;;2.22;66.92
11692;BME280;33659;42.672;23.354;2023-02-12T09:48:42;95420.81;;;2.28;66.85
11692;BME280;33659;42.672;23.354;2023-02-12T09:51:10;95441.66;;;2.21;66.64
11692;BME280;33659;42.672;23.354;2023-02-12T09:53:39;95417.13;;;2.13;67.38
11692;BME280;33659;42.672;23.354;2023-02-12T09:56:12;95428.94;;;2.09;68.18
11692;BME280;33659;42.672;23.354;2023-02-12T09:58:43;95419.19;;;2.16;67.58
11692;BME280;33659;42.672;23.354;2023-02-12T10:01:14;95430.06;;;2.24;67.38
11692;BME280;33659;42.672;23.354;2023-02-12T10:03:42;95426.97;;;2.22;67.18
11692;BME280;33659;42.672;23.354;2023-02-12T10:06:13;95442.47;;;2.27;67.32
11692;BME280;33659;42.672;23.354;2023-02-12T10:08:49;95442.00;;;2.35;66.57
11692;BME280;33659;42.672;23.354;2023-02-12T10:11:39;95438.81;;;2.23;66.92
11692;BME280;33659;42.672;23.354;2023-02-12T10:14:21;95424.69;;;2.30;66.90
11692;BME280;33659;42.672;23.354;2023-02-12T10:16:58;95432.16;;;2.32;67.35
11692;BME280;33659;42.672;23.354;2023-02-12T10:19:45;95450.56;;;2.46;66.35
11692;BME280;33659;42.672;23.354;2023-02-12T10:22:21;95424.59;;;2.62;66.13
11692;BME280;33659;42.672;23.354;2023-02-12T10:25:02;95421.28;;;2.67;65.65
11692;BME280;33659;42.672;23.354;2023-02-12T10:27:37;95417.97;;;2.77;65.58
11692;BME280;33659;42.672;23.354;2023-02-12T10:30:13;95439.72;;;2.96;65.04
11692;BME280;33659;42.672;23.354;2023-02-12T10:32:45;95428.66;;;3.01;64.39
11692;BME280;33659;42.672;23.354;2023-02-12T10:35:14;95411.63;;;3.05;64.60
11692;BME280;33659;42.672;23.354;2023-02-12T10:37:43;95418.59;;;2.99;64.69
11692;BME280;33659;42.672;23.354;2023-02-12T10:40:17;95420.09;;;2.90;64.63
11692;BME280;33659;42.672;23.354;2023-02-12T10:42:47;95422.13;;;2.78;65.18
11692;BME280;33659;42.672;23.354;2023-02-12T10:45:15;95429.84;;;2.78;65.56
11692;BME280;33659;42.672;23.354;2023-02-12T10:47:45;95421.13;;;2.84;64.69
11692;BME280;33659;42.672;23.354;2023-02-12T10:50:17;95429.09;;;2.82;65.29
11692;BME280;33659;42.672;23.354;2023-02-12T10:52:50;95441.28;;;3.02;65.07
11692;BME280;33659;42.672;23.354;2023-02-12T10:55:26;95446.72;;;3.06;64.67
11692;BME280;33659;42.672;23.354;2023-02-12T10:57:55;95434.66;;;3.21;64.26
11692;BME280;33659;42.672;23.354;2023-02-12T11:00:25;95437.75;;;3.23;64.19
11692;BME280;33659;42.672;23.354;2023-02-12T11:03:02;95439.56;;;3.18;64.09
11692;BME280;33659;42.672;23.354;2023-02-12T11:05:32;95430.25;;;3.17;63.87
11692;BME280;33659;42.672;23.354;2023-02-12T11:07:59;95438.28;;;3.25;64.77
11692;BME280;33659;42.672;23.354;2023-02-12T11:10:28;95440.91;;;3.36;63.51
11692;BME280;33659;42.672;23.354;2023-02-12T11:12:57;95440.13;;;3.45;63.60
11692;BME280;33659;42.672;23.354;2023-02-12T11:15:25;95416.66;;;3.52;63.45
11692;BME280;33659;42.672;23.354;2023-02-12T11:17:57;95432.66;;;3.54;63.17
11692;BME280;33659;42.672;23.354;2023-02-12T11:20:29;95419.22;;;3.52;63.62
11692;BME280;33659;42.672;23.354;2023-02-12T11:23:00;95429.03;;;3.60;62.84
11692;BME280;33659;42.672;23.354;2023-02-12T11:25:29;95426.75;;;3.69;62.79
11692;BME280;33659;42.672;23.354;2023-02-12T11:28:03;95443.53;;;3.66;63.54
11692;BME280;33659;42.672;23.354;2023-02-12T11:30:30;95431.38;;;3.67;63.51
11692;BME280;33659;42.672;23.354;2023-02-12T11:33:16;95425.72;;;3.70;63.57
11692;BME280;33659;42.672;23.354;2023-02-12T11:35:53;95425.97;;;3.68;62.92
11692;BME280;33659;42.672;23.354;2023-02-12T11:38:24;95426.50;;;3.70;63.69
11692;BME280;33659;42.672;23.354;2023-02-12T11:40:56;95431.13;;;3.78;62.85
11692;BME280;33659;42.672;23.354;2023-02-12T11:43:23;95435.81;;;3.87;62.32
11692;BME280;33659;42.672;23.354;2023-02-12T11:45:52;95429.59;;;3.93;62.54
11692;BME280;33659;42.672;23.354;2023-02-12T11:48:22;95420.81;;;3.94;61.87
11692;BME280;33659;42.672;23.354;2023-02-12T11:50:54;95430.63;;;4.02;62.07
11692;BME280;33659;42.672;23.354;2023-02-12T11:53:24;95435.28;;;4.00;62.15
11692;BME280;33659;42.672;23.354;2023-02-12T11:55:57;95431.16;;;4.09;61.54
11692;BME280;33659;42.672;23.354;2023-02-12T11:58:26;95431.16;;;4.14;61.90
11692;BME280;33659;42.672;23.354;2023-02-12T12:00:57;95430.13;;;4.20;61.21
11692;BME280;33659;42.672;23.354;2023-02-12T12:03:29;95431.66;;;4.16;61.55
11692;BME280;33659;42.672;23.354;2023-02-12T12:06:06;95436.06;;;4.21;61.59
11692;BME280;33659;42.672;23.354;2023-02-12T12:08:39;95433.22;;;4.22;61.39
11692;BME280;33659;42.672;23.354;2023-02-12T12:11:11;95433.72;;;4.29;61.06
11692;BME280;33659;42.672;23.354;2023-02-12T12:13:44;95435.28;;;4.20;60.76
11692;BME280;33659;42.672;23.354;2023-02-12T12:16:17;95429.84;;;4.17;61.72
11692;BME280;33659;42.672;23.354;2023-02-12T12:19:05;95440.69;;;4.29;61.11
11692;BME280;33659;42.672;23.354;2023-02-12T12:21:59;95412.53;;;4.17;61.02
11692;BME280;33659;42.672;23.354;2023-02-12T12:24:37;95440.97;;;4.32;61.19
11692;BME280;33659;42.672;23.354;2023-02-12T12:27:11;95437.56;;;4.37;61.18
11692;BME280;33659;42.672;23.354;2023-02-12T12:30:02;95437.84;;;4.41;60.60
11692;BME280;33659;42.672;23.354;2023-02-12T12:32:33;95440.44;;;4.30;60.82
11692;BME280;33659;42.672;23.354;2023-02-12T12:35:01;95437.84;;;4.41;60.74
11692;BME280;33659;42.672;23.354;2023-02-12T12:37:35;95447.91;;;4.47;60.91
11692;BME280;33659;42.672;23.354;2023-02-12T12:40:24;95439.38;;;4.47;60.14
11692;BME280;33659;42.672;23.354;2023-02-12T12:43:07;95449.72;;;4.47;60.61
11692;BME280;33659;42.672;23.354;2023-02-12T12:45:58;95447.66;;;4.49;60.06
11692;BME280;33659;42.672;23.354;2023-02-12T12:48:41;95446.59;;;4.60;60.03
11692;BME280;33659;42.672;23.354;2023-02-12T12:51:23;95457.44;;;4.72;59.64
11692;BME280;33659;42.672;23.354;2023-02-12T12:54:07;95444.50;;;4.72;58.95
11692;BME280;33659;42.672;23.354;2023-02-12T12:56:44;95459.53;;;4.70;59.38
11692;BME280;33659;42.672;23.354;2023-02-12T12:59:33;95456.94;;;4.65;59.38
11692;BME280;33659;42.672;23.354;2023-02-12T13:02:38;95466.25;;;4.61;59.16
11692;BME280;33659;42.672;23.354;2023-02-12T13:05:22;95470.66;;;4.60;59.52
11692;BME280;33659;42.672;23.354;2023-02-12T13:08:05;95460.56;;;4.54;59.64
11692;BME280;33659;42.672;23.354;2023-02-12T13:10:39;95467.81;;;4.62;59.84
11692;BME280;33659;42.672;23.354;2023-02-12T13:13:23;95465.75;;;4.49;60.60
11692;BME280;33659;42.672;23.354;2023-02-12T13:15:56;95460.06;;;4.37;60.68
11692;BME280;33659;42.672;23.354;2023-02-12T13:18:33;95474.31;;;4.39;60.91
11692;BME280;33659;42.672;23.354;2023-02-12T13:21:10;95466.28;;;4.30;60.49
11692;BME280;33659;42.672;23.354;2023-02-12T13:23:43;95481.53;;;4.37;60.83